Rechercher aéroport 
image banner adimage banner adimage banner ad
image banner ad

7PA2 - State Park

Situé à Wind Gap, United States

ICAO - 7PA2, IATA -

Données fournies par Airmate  

Information générale

Coordonnées: N40°48'14" W75°17'49"
Élévation : 620 feet MSL.
Variation magnétique : -12° East
Voir autres Aéroports à Pennsylvania

Données opérationnelles

Special qualification required
Heure actuelle UTC:
Heure actuelle locale:
Météo à : KABE - Lehigh Valley Intl ( 21 km )
METAR: KABE 132051Z 00000KT 10SM OVC029 23/17 A2988 RMK AO2 SLP118 T02330172 55007 $
TAF: KABE 131728Z 1318/1418 20005KT P6SM BKN040 FM140100 18004KT P6SM -SHRA OVC025 FM140700 15004KT 4SM -SHRA BR OVC015 FM141600 20004KT 6SM BR BKN010
Voir NOTAMs / SUP AIP / TFR affectant cet aéroport [VIEW]
Fréquences de communication: [VIEW]

Pistes:

Coordonnées de l'aéroport

Adresse: Wind Gap United States

Vue satellite de 7PA2